Vernant Park, Alabama
Current Conditions -  °F | °C
As of 9:55 PM on Tuesday 25 Nov 2014 (Local Time) from KJKA Reporting Station
Scattered Clouds Scattered Clouds  
Wind Chill: 51°   Ceiling: Unl
Heat Index: 51°   Visibility: 10mi
Dew Point: 37°   Wind: 9mph
Humidity: 58%   Direction: 290°WNW
Pressure: 30.15"   Gusts: NA
Location:  30.3794°N, 87.7151°W
Report Text: KJKA 260355Z AUTO 29008KT 10SM SCT120 11/03 A3015 RMK AO2 T01080029
Loading
Personal Weather Stations






























Interactive Weather Map New forecast layout! Learn more

10-Day Weather Forecast

Advertisements
Track Severe Weather on mobile